Time;durP1;ratioP1;P1;durP2;ratioP2;P2;SDS_P1;SDS_P2;PMS_P1;PMS_P2;Temp;Humidity;BMP_temperature;BMP_pressure;BME280_temperature;BME280_humidity;BME280_pressure;Samples;Min_cycle;Max_cycle;Signal;HPM_P1;HPM_P2
2023/12/16 00:00:10;;;;;;;19.33;8.13;;;;;;;;;;5064827;28;20030;-80
2023/12/16 00:02:38;;;;;;;21.10;7.78;;;;;;;;;;5083194;28;20032;-79
2023/12/16 00:05:04;;;;;;;18.83;8.40;;;;;;;;;;5066538;28;20073;-81
2023/12/16 00:07:30;;;;;;;20.83;8.52;;;;;;;;;;5086233;28;20028;-80
2023/12/16 00:09:56;;;;;;;28.50;9.30;;;;;;;;;;5083466;28;20036;-80
2023/12/16 00:12:22;;;;;;;27.60;10.80;;;;;;;;;;5080189;28;20055;-79
2023/12/16 00:14:48;;;;;;;28.40;10.95;;;;;;;;;;5064353;28;21830;-80
2023/12/16 00:17:14;;;;;;;23.23;9.43;;;;;;;;;;5082126;28;20119;-81
2023/12/16 00:19:40;;;;;;;27.17;9.77;;;;;;;;;;5082823;28;20036;-80
2023/12/16 00:22:07;;;;;;;18.85;9.63;;;;;;;;;;5079900;28;20043;-80
2023/12/16 00:24:33;;;;;;;21.90;9.43;;;;;;;;;;5067579;28;20036;-79
2023/12/16 00:26:59;;;;;;;23.73;10.07;;;;;;;;;;5070758;28;20464;-80
2023/12/16 00:29:25;;;;;;;32.83;11.43;;;;;;;;;;5070258;28;20111;-79
2023/12/16 00:31:52;;;;;;;28.30;11.98;;;;;;;;;;5074323;28;20043;-80
2023/12/16 00:34:18;;;;;;;28.83;10.55;;;;;;;;;;5067261;28;20047;-80
2023/12/16 00:36:44;;;;;;;36.70;12.40;;;;;;;;;;5082427;28;20024;-80
2023/12/16 00:39:10;;;;;;;32.95;12.02;;;;;;;;;;5107019;28;20047;-78
2023/12/16 00:41:37;;;;;;;25.02;10.68;;;;;;;;;;5093255;28;20032;-80
2023/12/16 00:44:03;;;;;;;31.70;10.40;;;;;;;;;;5066899;28;20115;-80
2023/12/16 00:46:29;;;;;;;23.45;8.30;;;;;;;;;;5080796;28;20453;-80
2023/12/16 00:48:57;;;;;;;25.27;10.48;;;;;;;;;;5085225;28;20024;-80
2023/12/16 00:51:23;;;;;;;28.13;10.98;;;;;;;;;;5068146;28;20081;-80
2023/12/16 00:53:49;;;;;;;28.58;10.75;;;;;;;;;;5086144;28;20032;-80
2023/12/16 00:56:15;;;;;;;23.48;9.32;;;;;;;;;;5081733;28;20020;-80
2023/12/16 00:58:42;;;;;;;24.48;8.70;;;;;;;;;;5082748;28;20035;-80
2023/12/16 01:01:08;;;;;;;21.95;8.95;;;;;;;;;;5086102;28;20023;-81
2023/12/16 01:03:37;;;;;;;22.17;9.32;;;;;;;;;;5085408;28;20023;-80
2023/12/16 01:06:03;;;;;;;24.35;10.25;;;;;;;;;;5070111;28;20162;-80
2023/12/16 01:08:29;;;;;;;24.15;10.02;;;;;;;;;;5081902;28;20420;-80
2023/12/16 01:10:55;;;;;;;25.13;10.90;;;;;;;;;;5068505;28;20072;-80
2023/12/16 01:13:21;;;;;;;24.27;9.27;;;;;;;;;;5086695;28;20139;-80
2023/12/16 01:15:47;;;;;;;25.70;9.57;;;;;;;;;;5074521;28;20028;-81
2023/12/16 01:18:13;;;;;;;17.73;7.55;;;;;;;;;;5069699;28;20486;-81
2023/12/16 01:20:39;;;;;;;19.50;7.53;;;;;;;;;;5087158;28;20035;-80
2023/12/16 01:23:05;;;;;;;23.00;8.88;;;;;;;;;;5089274;28;20024;-81
2023/12/16 01:25:31;;;;;;;23.98;9.38;;;;;;;;;;5083473;28;20520;-81
2023/12/16 01:27:58;;;;;;;24.42;9.25;;;;;;;;;;5083780;28;20555;-80
2023/12/16 01:30:26;;;;;;;23.00;9.48;;;;;;;;;;5083463;28;20561;-80
2023/12/16 01:32:52;;;;;;;19.27;8.75;;;;;;;;;;5071022;28;20047;-79
2023/12/16 01:35:18;;;;;;;25.02;10.73;;;;;;;;;;5086426;28;20541;-79
2023/12/16 01:37:44;;;;;;;23.80;10.27;;;;;;;;;;5071392;28;20355;-80
2023/12/16 01:40:10;;;;;;;19.42;9.05;;;;;;;;;;5069936;28;20024;-80
2023/12/16 01:42:38;;;;;;;19.52;7.63;;;;;;;;;;5069730;28;20028;-79
2023/12/16 01:45:04;;;;;;;22.25;9.35;;;;;;;;;;5068034;28;20506;-80
2023/12/16 01:47:31;;;;;;;28.95;10.15;;;;;;;;;;5087939;28;20062;-80
2023/12/16 01:49:57;;;;;;;25.10;9.57;;;;;;;;;;5091351;28;20032;-81
2023/12/16 01:52:23;;;;;;;22.15;8.55;;;;;;;;;;5089465;28;20439;-80
2023/12/16 01:54:49;;;;;;;20.50;8.45;;;;;;;;;;5070834;28;20050;-80
2023/12/16 01:57:15;;;;;;;19.45;9.40;;;;;;;;;;5092674;28;20031;-79
2023/12/16 01:59:41;;;;;;;20.15;8.63;;;;;;;;;;5090239;28;20039;-79
2023/12/16 02:02:08;;;;;;;19.25;8.38;;;;;;;;;;5087690;28;20028;-80
2023/12/16 02:04:35;;;;;;;26.90;10.48;;;;;;;;;;5087710;28;20040;-79
2023/12/16 02:07:01;;;;;;;33.15;11.77;;;;;;;;;;5072626;28;20019;-80
2023/12/16 02:09:27;;;;;;;26.00;11.07;;;;;;;;;;5083044;28;20070;-79
2023/12/16 02:11:54;;;;;;;21.08;9.27;;;;;;;;;;5084812;28;20032;-80
2023/12/16 02:14:20;;;;;;;22.77;9.43;;;;;;;;;;5080623;28;20051;-80
2023/12/16 02:16:46;;;;;;;26.33;10.20;;;;;;;;;;5089049;28;20055;-79
2023/12/16 02:19:13;;;;;;;24.80;9.85;;;;;;;;;;5070767;28;20052;-79
2023/12/16 02:21:39;;;;;;;22.50;10.90;;;;;;;;;;5085684;28;20035;-79
2023/12/16 02:24:05;;;;;;;22.15;9.52;;;;;;;;;;5087642;28;20035;-79
2023/12/16 02:26:31;;;;;;;22.33;8.95;;;;;;;;;;5073507;28;20028;-79
2023/12/16 02:28:57;;;;;;;20.58;8.88;;;;;;;;;;5070812;28;21671;-80
2023/12/16 02:31:24;;;;;;;23.35;8.95;;;;;;;;;;5091176;28;20032;-79
2023/12/16 02:33:49;;;;;;;17.90;8.20;;;;;;;;;;5071537;28;20032;-78
2023/12/16 02:36:16;;;;;;;17.15;7.30;;;;;;;;;;5074987;28;20648;-80
2023/12/16 02:38:42;;;;;;;22.35;8.88;;;;;;;;;;5054862;28;20046;-80
2023/12/16 02:41:08;;;;;;;19.52;8.75;;;;;;;;;;5087529;28;20028;-78
2023/12/16 02:43:34;;;;;;;17.35;8.52;;;;;;;;;;5082299;28;20119;-80
2023/12/16 02:46:00;;;;;;;20.50;8.90;;;;;;;;;;5087930;28;20448;-79
2023/12/16 02:48:26;;;;;;;19.42;8.18;;;;;;;;;;5098204;28;20016;-78
2023/12/16 02:50:52;;;;;;;27.20;8.80;;;;;;;;;;5093051;28;20048;-79
2023/12/16 02:53:18;;;;;;;23.17;9.13;;;;;;;;;;5069186;28;20482;-80
2023/12/16 02:55:43;;;;;;;20.05;8.32;;;;;;;;;;5091398;28;20677;-81
2023/12/16 02:58:09;;;;;;;19.52;8.85;;;;;;;;;;5070981;28;20086;-80
2023/12/16 03:00:35;;;;;;;18.50;8.30;;;;;;;;;;5078325;28;20032;-80
2023/12/16 03:03:01;;;;;;;22.42;9.52;;;;;;;;;;5086528;28;20032;-80
2023/12/16 03:05:27;;;;;;;25.63;9.65;;;;;;;;;;5072061;28;20036;-80
2023/12/16 03:07:53;;;;;;;20.27;8.85;;;;;;;;;;5089098;28;20115;-80
2023/12/16 03:10:19;;;;;;;28.85;10.02;;;;;;;;;;5086476;28;20115;-80
2023/12/16 03:12:46;;;;;;;24.02;8.88;;;;;;;;;;5065725;28;20031;-79
2023/12/16 03:15:12;;;;;;;19.48;8.73;;;;;;;;;;5081056;28;20096;-80
2023/12/16 03:17:38;;;;;;;22.92;9.00;;;;;;;;;;5089734;28;20032;-80
2023/12/16 03:20:05;;;;;;;22.80;9.98;;;;;;;;;;5068520;28;20697;-79
2023/12/16 03:22:31;;;;;;;24.58;9.60;;;;;;;;;;5073390;28;20028;-80
2023/12/16 03:24:57;;;;;;;26.38;8.07;;;;;;;;;;5082932;28;20497;-80
2023/12/16 03:27:23;;;;;;;19.30;7.30;;;;;;;;;;5071091;28;20506;-80
2023/12/16 03:29:49;;;;;;;18.45;7.40;;;;;;;;;;5066149;28;20149;-79
2023/12/16 03:32:15;;;;;;;19.80;7.95;;;;;;;;;;5069416;28;20077;-81
2023/12/16 03:34:42;;;;;;;19.45;8.10;;;;;;;;;;5068618;28;20477;-80
2023/12/16 03:37:08;;;;;;;24.05;8.52;;;;;;;;;;5086647;28;20415;-81
2023/12/16 03:39:35;;;;;;;24.83;8.10;;;;;;;;;;5072040;28;20142;-80
2023/12/16 03:42:01;;;;;;;17.63;8.15;;;;;;;;;;5083622;28;20120;-80
2023/12/16 03:44:27;;;;;;;23.13;8.70;;;;;;;;;;5071407;28;20571;-79
2023/12/16 03:46:53;;;;;;;17.98;8.15;;;;;;;;;;5072197;28;20447;-79
2023/12/16 03:49:19;;;;;;;20.83;7.85;;;;;;;;;;5078478;28;20039;-80
2023/12/16 03:51:45;;;;;;;22.83;8.43;;;;;;;;;;5085548;28;20123;-80
2023/12/16 03:54:11;;;;;;;21.63;7.55;;;;;;;;;;5084251;28;20035;-80
2023/12/16 03:56:38;;;;;;;25.80;8.88;;;;;;;;;;5087357;28;20532;-78
2023/12/16 03:59:05;;;;;;;28.75;11.30;;;;;;;;;;5085810;28;20036;-79
2023/12/16 04:01:31;;;;;;;29.90;11.43;;;;;;;;;;5067741;28;20051;-80
2023/12/16 04:03:59;;;;;;;22.95;9.60;;;;;;;;;;5084990;28;20097;-80
2023/12/16 04:06:26;;;;;;;20.02;9.32;;;;;;;;;;5082085;28;20027;-79
2023/12/16 04:08:52;;;;;;;20.42;8.95;;;;;;;;;;5079492;28;20119;-79
2023/12/16 04:11:18;;;;;;;17.08;7.90;;;;;;;;;;5064848;28;20809;-80
2023/12/16 04:13:44;;;;;;;22.08;9.13;;;;;;;;;;5083392;28;20035;-79
2023/12/16 04:16:10;;;;;;;18.38;6.85;;;;;;;;;;5091569;28;20406;-80
2023/12/16 04:18:36;;;;;;;22.13;8.77;;;;;;;;;;5066372;28;20104;-79
2023/12/16 04:21:02;;;;;;;23.60;9.40;;;;;;;;;;5066106;28;20035;-79
2023/12/16 04:23:28;;;;;;;21.35;8.65;;;;;;;;;;5081290;28;20024;-79
2023/12/16 04:25:54;;;;;;;19.10;7.97;;;;;;;;;;5080498;28;20024;-79
2023/12/16 04:28:20;;;;;;;21.58;8.25;;;;;;;;;;5085330;28;20580;-79
2023/12/16 04:30:46;;;;;;;17.88;7.85;;;;;;;;;;5083444;28;20038;-79
2023/12/16 04:33:13;;;;;;;24.52;8.82;;;;;;;;;;5075910;28;20028;-79
2023/12/16 04:35:39;;;;;;;20.85;9.23;;;;;;;;;;5086404;28;20033;-79
2023/12/16 04:38:05;;;;;;;18.15;7.65;;;;;;;;;;5069601;28;20035;-79
2023/12/16 04:40:31;;;;;;;24.50;8.63;;;;;;;;;;5064678;28;20028;-79
2023/12/16 04:42:57;;;;;;;21.48;8.77;;;;;;;;;;5087054;28;20028;-79
2023/12/16 04:45:22;;;;;;;20.88;7.40;;;;;;;;;;5062198;28;20036;-79
2023/12/16 04:47:48;;;;;;;18.55;8.18;;;;;;;;;;5072836;28;20024;-79
2023/12/16 04:50:15;;;;;;;17.00;7.57;;;;;;;;;;5084997;28;20111;-80
2023/12/16 04:52:40;;;;;;;21.73;8.20;;;;;;;;;;5080154;28;20032;-79
2023/12/16 04:55:07;;;;;;;23.73;8.23;;;4.10;99.90;;;;;;5075807;28;20024;-79
2023/12/16 04:57:33;;;;;;;21.13;7.97;;;;;;;;;;5097827;28;20024;-77
2023/12/16 04:59:59;;;;;;;17.65;7.70;;;;;;;;;;5109054;28;20077;-80
2023/12/16 05:02:25;;;;;;;15.70;7.00;;;;;;;;;;5068990;28;20028;-79
2023/12/16 05:04:51;;;;;;;15.55;6.70;;;;;;;;;;5093409;28;20031;-79
2023/12/16 05:07:17;;;;;;;16.67;6.95;;;6.60;99.90;;;;;;5094016;28;20572;-80
2023/12/16 05:09:43;;;;;;;16.83;7.63;;;;;;;;;;5087619;28;20446;-80
2023/12/16 05:12:09;;;;;;;24.40;7.30;;;;;;;;;;5095225;28;20375;-81
2023/12/16 05:14:34;;;;;;;17.08;7.18;;;;;;;;;;5091531;28;20032;-79
2023/12/16 05:17:00;;;;;;;19.90;9.02;;;;;;;;;;5090640;28;20028;-80
2023/12/16 05:19:26;;;;;;;16.00;7.00;;;;;;;;;;5091166;28;21645;-79
2023/12/16 05:21:52;;;;;;;16.38;7.13;;;;;;;;;;5071096;28;20085;-80
2023/12/16 05:24:20;;;;;;;18.95;8.05;;;;;;;;;;5085564;28;20028;-80
2023/12/16 05:26:46;;;;;;;19.35;7.60;;;;;;;;;;5072543;28;20040;-79
2023/12/16 05:29:12;;;;;;;26.15;8.63;;;;;;;;;;5090883;28;20020;-80
2023/12/16 05:31:38;;;;;;;17.13;7.43;;;;;;;;;;5077635;28;20542;-80
2023/12/16 05:34:04;;;;;;;17.35;7.95;;;;;;;;;;5080189;28;20039;-80
2023/12/16 05:36:30;;;;;;;23.67;9.88;;;;;;;;;;5088847;28;20013;-79
2023/12/16 05:38:56;;;;;;;16.02;7.20;;;;;;;;;;5070884;28;20413;-80
2023/12/16 05:41:22;;;;;;;20.92;8.63;;;;;;;;;;5093434;28;20646;-80
2023/12/16 05:43:48;;;;;;;20.98;7.03;;;;;;;;;;5073487;28;20096;-79
2023/12/16 05:46:14;;;;;;;20.33;6.70;;;;;;;;;;5071838;28;20119;-80
2023/12/16 05:48:40;;;;;;;17.02;7.85;;;;;;;;;;5074331;28;20039;-79
2023/12/16 05:51:06;;;;;;;25.05;10.10;;;;;;;;;;5091485;28;20379;-79
2023/12/16 05:53:36;;;;;;;32.42;9.95;;;;;;;;;;5070400;28;20048;-80
2023/12/16 05:56:06;;;;;;;29.17;10.07;;;;;;;;;;5081316;28;20024;-80
2023/12/16 05:58:32;;;;;;;24.85;9.60;;;;;;;;;;5071092;28;20027;-79
2023/12/16 06:00:58;;;;;;;25.77;9.00;;;;;;;;;;5069214;28;20032;-80
2023/12/16 06:03:24;;;;;;;19.75;8.07;;;;;;;;;;5076129;28;20039;-81
2023/12/16 06:05:51;;;;;;;21.48;7.97;;;;;;;;;;5087835;28;20040;-80
2023/12/16 06:08:17;;;;;;;17.92;8.02;;;;;;;;;;5089441;28;20110;-79
2023/12/16 06:10:42;;;;;;;21.80;8.30;;;;;;;;;;5066673;28;20505;-79
2023/12/16 06:13:08;;;;;;;19.17;6.97;;;5.70;99.90;;;;;;5086293;28;20032;-80
2023/12/16 06:15:34;;;;;;;18.05;7.95;;;;;;;;;;5089137;28;20373;-79
2023/12/16 06:18:03;;;;;;;19.90;8.23;;;;;;;;;;5084958;28;20031;-79
2023/12/16 06:20:30;;;;;;;24.75;8.50;;;;;;;;;;5087369;28;20031;-79
2023/12/16 06:22:55;;;;;;;18.45;6.93;;;;;;;;;;5087495;28;20032;-79
2023/12/16 06:25:21;;;;;;;17.00;7.25;;;;;;;;;;5085341;28;20031;-80
2023/12/16 06:27:47;;;;;;;20.58;8.25;;;;;;;;;;5091990;28;20117;-80
2023/12/16 06:30:14;;;;;;;17.70;7.35;;;;;;;;;;5087384;28;20035;-79
2023/12/16 06:32:40;;;;;;;16.77;7.22;;;;;;;;;;5089224;28;20486;-80
2023/12/16 06:35:06;;;;;;;22.02;8.68;;;;;;;;;;5085758;28;20032;-80
2023/12/16 06:37:32;;;;;;;22.98;9.85;;;;;;;;;;5071452;28;20024;-78
2023/12/16 06:39:58;;;;;;;21.55;7.75;;;;;;;;;;5087752;28;20024;-80
2023/12/16 06:42:24;;;;;;;22.02;8.90;;;;;;;;;;5091637;28;20086;-82
2023/12/16 06:44:50;;;;;;;28.75;10.20;;;;;;;;;;5078276;28;20024;-81
2023/12/16 06:47:16;;;;;;;25.50;8.90;;;;;;;;;;5095080;28;20102;-80
2023/12/16 06:49:42;;;;;;;27.63;8.02;;;;;;;;;;5087098;28;20031;-80
2023/12/16 06:52:08;;;;;;;19.13;6.28;;;;;;;;;;5070065;28;20502;-80
2023/12/16 06:54:34;;;;;;;15.77;6.43;;;;;;;;;;5093262;28;20032;-79
2023/12/16 06:57:00;;;;;;;18.15;7.05;;;;;;;;;;5080376;28;20053;-81
2023/12/16 06:59:26;;;;;;;16.88;6.82;;;;;;;;;;5093751;28;20115;-81
2023/12/16 07:01:52;;;;;;;13.93;6.72;;;;;;;;;;5098479;28;20032;-79
2023/12/16 07:04:18;;;;;;;17.13;7.40;;;;;;;;;;5073322;28;20507;-79
2023/12/16 07:06:44;;;;;;;15.15;7.10;;;;;;;;;;5069398;28;20027;-80
2023/12/16 07:09:10;;;;;;;15.70;7.38;;;;;;;;;;5082999;28;20116;-78
2023/12/16 07:11:40;;;;;;;17.02;7.38;;;;;;;;;;5096967;28;21233;-81
2023/12/16 07:14:08;;;;;;;18.92;7.82;;;;;;;;;;5084677;28;20047;-81
2023/12/16 07:16:34;;;;;;;17.67;7.05;;;;;;;;;;5065630;28;20404;-80
2023/12/16 07:19:00;;;;;;;19.45;7.75;;;;;;;;;;5086212;28;20024;-78
2023/12/16 07:21:27;;;;;;;15.85;7.53;;;;;;;;;;5075625;28;20387;-80
2023/12/16 07:23:54;;;;;;;20.98;7.95;;;;;;;;;;5067825;28;20046;-79
2023/12/16 07:26:19;;;;;;;12.30;5.45;;;;;;;;;;5079678;28;20049;-80
2023/12/16 07:28:46;;;;;;;19.55;8.00;;;;;;;;;;5080776;28;20168;-80
2023/12/16 07:31:12;;;;;;;15.48;6.55;;;;;;;;;;5082376;28;20028;-79
2023/12/16 07:33:38;;;;;;;22.13;8.75;;;;;;;;;;5083313;28;20104;-80
2023/12/16 07:36:04;;;;;;;16.67;7.13;;;;;;;;;;5064198;28;20028;-79
2023/12/16 07:38:31;;;;;;;22.92;7.78;;;;;;;;;;5062617;28;20063;-80
2023/12/16 07:40:57;;;;;;;19.98;8.02;;;;;;;;;;5085299;28;20499;-79
2023/12/16 07:43:22;;;;;;;23.33;7.90;;;;;;;;;;5080036;28;20055;-79
2023/12/16 07:45:48;;;;;;;20.75;7.50;;;;;;;;;;5084541;28;20036;-79
2023/12/16 07:48:14;;;;;;;19.80;6.93;;;;;;;;;;5088260;28;20032;-79
2023/12/16 07:50:40;;;;;;;15.27;6.32;;;;;;;;;;5066876;28;20040;-80
2023/12/16 07:53:08;;;;;;;23.20;8.52;;;;;;;;;;5086364;28;20107;-80
2023/12/16 07:55:34;;;;;;;23.52;8.45;;;;;;;;;;5069550;28;20040;-79
2023/12/16 07:58:00;;;;;;;18.85;8.40;;;;;;;;;;5088274;28;20032;-80
2023/12/16 08:00:27;;;;;;;23.27;8.05;;;;;;;;;;5063559;28;20127;-79
2023/12/16 08:02:53;;;;;;;18.25;7.28;;;;;;;;;;5086511;28;20458;-78
2023/12/16 08:05:20;;;;;;;14.40;6.20;;;;;;;;;;5079526;28;20265;-80
2023/12/16 08:07:46;;;;;;;18.70;7.90;;;;;;;;;;5083753;28;20102;-80
2023/12/16 08:10:13;;;;;;;18.27;7.47;;;;;;;;;;5082008;28;20097;-80
2023/12/16 08:12:38;;;;;;;17.88;7.60;;;;;;;;;;5069686;28;20059;-80
2023/12/16 08:15:05;;;;;;;21.63;6.90;;;;;;;;;;5083995;28;20066;-81
2023/12/16 08:17:31;;;;;;;21.75;8.23;;;;;;;;;;5070547;28;20024;-80
2023/12/16 08:19:57;;;;;;;19.98;8.80;;;;;;;;;;5077800;28;20110;-81
2023/12/16 08:22:22;;;;;;;23.38;9.25;;;;;;;;;;5084638;28;20032;-81
2023/12/16 08:24:48;;;;;;;26.95;10.73;;;;;;;;;;5055872;28;20115;-81
2023/12/16 08:27:16;;;;;;;44.75;14.35;;;;;;;;;;5077555;28;20414;-80
2023/12/16 08:29:45;;;;;;;33.65;13.82;;;;;;;;;;5084921;28;20109;-80
2023/12/16 08:32:11;;;;;;;21.35;9.82;;;;;;;;;;5086068;28;22457;-80
2023/12/16 08:34:37;;;;;;;21.75;7.90;;;;;;;;;;5076834;28;20143;-80
2023/12/16 08:37:04;;;;;;;17.98;7.50;;;;;;;;;;5073935;28;20069;-80
2023/12/16 08:39:30;;;;;;;19.05;8.68;;;;;;;;;;5088674;28;20028;-80
2023/12/16 08:41:56;;;;;;;23.20;7.60;;;;;;;;;;5073543;28;20024;-81
2023/12/16 08:44:22;;;;;;;21.52;8.40;;;;;;;;;;5080331;28;20538;-80
2023/12/16 08:46:48;;;;;;;20.83;7.47;;;;;;;;;;5085412;28;20087;-80
2023/12/16 08:49:14;;;;;;;21.70;8.13;;;;;;;;;;5083257;28;20379;-80
2023/12/16 08:51:40;;;;;;;22.88;7.85;;;;;;;;;;5085166;28;20028;-80
2023/12/16 08:54:06;;;;;;;22.80;8.90;;;;;;;;;;5080792;28;20040;-80
2023/12/16 08:56:32;;;;;;;22.75;8.10;;;;;;;;;;5068515;28;20024;-79
2023/12/16 08:58:58;;;;;;;21.63;8.30;;;;;;;;;;5083560;28;20047;-80
2023/12/16 09:01:24;;;;;;;24.65;8.50;;;;;;;;;;5087912;28;20099;-80
2023/12/16 09:03:50;;;;;;;18.15;8.10;;;;;;;;;;5083574;28;20035;-80
2023/12/16 09:06:17;;;;;;;23.20;8.20;;;;;;;;;;5066148;28;20032;-81
2023/12/16 09:08:43;;;;;;;23.17;7.93;;;;;;;;;;5065644;28;20060;-80
2023/12/16 09:11:09;;;;;;;17.98;6.28;;;;;;;;;;5082432;28;20090;-80
2023/12/16 09:13:35;;;;;;;28.20;8.13;;;;;;;;;;5081442;28;20060;-81
2023/12/16 09:16:01;;;;;;;20.95;8.38;;;;;;;;;;5088228;28;20473;-81
2023/12/16 09:18:27;;;;;;;17.40;7.28;;;;;;;;;;5068815;28;20036;-81
2023/12/16 09:20:53;;;;;;;35.97;12.45;;;;;;;;;;5078030;28;20028;-80
2023/12/16 09:23:19;;;;;;;40.35;12.63;;;;;;;;;;5085522;28;20024;-78
2023/12/16 09:25:45;;;;;;;22.52;8.85;;;;;;;;;;5091695;28;20042;-77
2023/12/16 09:28:11;;;;;;;25.40;10.23;;;;;;;;;;5063000;28;20764;-81
2023/12/16 09:30:37;;;;;;;22.58;8.95;;;;;;;;;;5081086;28;20090;-81
2023/12/16 09:33:04;;;;;;;22.10;8.75;;;;;;;;;;5070405;28;20353;-81
2023/12/16 09:35:30;;;;;;;25.52;8.20;;;;;;;;;;5073898;28;20024;-81
2023/12/16 09:37:56;;;;;;;22.83;8.85;;;;;;;;;;5075783;28;20395;-80
2023/12/16 09:40:22;;;;;;;19.23;7.57;;;;;;;;;;5084095;28;20047;-81
2023/12/16 09:42:53;;;;;;;15.60;7.15;;;;;;;;;;5090983;28;20028;-82
2023/12/16 09:45:21;;;;;;;14.20;6.68;;;;;;;;;;5086698;28;20062;-81
2023/12/16 09:47:48;;;;;;;18.42;7.03;;;;;;;;;;5073777;28;20028;-82
2023/12/16 09:50:14;;;;;;;21.20;6.72;;;;;;;;;;5084924;28;20515;-81
2023/12/16 09:52:40;;;;;;;19.27;8.25;;;;;;;;;;5075068;28;20038;-81
2023/12/16 09:55:07;;;;;;;16.10;7.15;;;;;;;;;;5069936;28;20397;-80
2023/12/16 09:57:35;;;;;;;24.25;9.30;;;;;;;;;;5073686;28;20028;-82
2023/12/16 10:00:01;;;;;;;22.42;8.23;;;;;;;;;;5085220;28;20058;-81
2023/12/16 10:02:28;;;;;;;15.98;7.25;;;;;;;;;;5087767;28;20028;-82
2023/12/16 10:04:57;;;;;;;21.83;7.70;;;;;;;;;;5065071;28;20057;-81
2023/12/16 10:07:24;;;;;;;15.73;6.20;;;;;;;;;;5070852;28;20028;-81
2023/12/16 10:09:50;;;;;;;22.33;8.48;;;;;;;;;;5070712;28;20028;-81
2023/12/16 10:12:15;;;;;;;23.48;6.95;;;;;;;;;;5088209;28;20085;-82
2023/12/16 10:14:51;;;;;;;12.45;5.55;;;8.20;99.90;;;;;;5080938;28;20035;-82
2023/12/16 10:17:17;;;;;;;15.80;6.25;;;;;;;;;;5081472;28;20016;-81
2023/12/16 10:19:44;;;;;;;13.20;6.57;;;;;;;;;;5086366;28;20036;-82
2023/12/16 10:22:12;;;;;;;22.20;7.68;;;;;;;;;;5089646;28;20031;-81
2023/12/16 10:24:40;;;;;;;15.77;7.10;;;;;;;;;;5082198;28;20468;-81
2023/12/16 10:27:07;;;;;;;16.23;7.00;;;;;;;;;;5086908;28;20023;-82
2023/12/16 10:29:33;;;;;;;14.23;6.43;;;;;;;;;;5067921;28;20394;-81
2023/12/16 10:31:59;;;;;;;16.45;5.80;;;;;;;;;;5068657;28;20032;-81
2023/12/16 10:34:29;;;;;;;18.52;7.97;;;;;;;;;;5083209;28;20042;-80
2023/12/16 10:37:17;;;;;;;18.95;7.10;;;;;;;;;;5081292;28;20108;-81
2023/12/16 10:39:43;;;;;;;11.00;5.47;;;;;;;;;;5069390;28;20224;-82
2023/12/16 10:42:09;;;;;;;15.43;5.88;;;;;;;;;;5076201;28;20032;-81
2023/12/16 10:44:36;;;;;;;16.83;7.53;;;;;;;;;;5072590;28;20044;-80
2023/12/16 10:47:02;;;;;;;27.83;12.55;;;;;;;;;;5083105;28;20036;-81
2023/12/16 10:49:29;;;;;;;18.52;7.35;;;;;;;;;;5072740;28;20056;-81
2023/12/16 10:52:00;;;;;;;18.17;7.10;;;;;;;;;;5082773;28;20482;-82
2023/12/16 10:54:29;;;;;;;14.77;6.13;;;;;;;;;;5088160;28;20035;-81
2023/12/16 10:57:06;;;;;;;14.57;5.72;;;;;;;;;;5071727;28;20073;-81
2023/12/16 10:59:38;;;;;;;8.50;4.53;;;;;;;;;;5076280;28;20031;-80
2023/12/16 11:02:07;;;;;;;12.07;5.68;;;;;;;;;;5087092;28;20027;-81
2023/12/16 11:04:35;;;;;;;15.18;6.88;;;;;;;;;;5087760;28;20128;-81
2023/12/16 11:07:12;;;;;;;12.52;5.70;;;8.70;99.90;;;;;;5072793;28;20029;-82
2023/12/16 11:09:41;;;;;;;15.85;5.30;;;;;;;;;;5080944;28;20048;-82
2023/12/16 11:12:09;;;;;;;19.20;8.55;;;;;;;;;;5082120;28;20111;-82
2023/12/16 11:14:36;;;;;;;12.88;6.32;;;;;;;;;;5067656;28;20036;-82
2023/12/16 11:17:07;;;;;;;16.83;6.03;;;;;;;;;;5086872;28;20020;-82
2023/12/16 11:19:36;;;;;;;15.27;6.93;;;;;;;;;;5083674;28;20545;-80
2023/12/16 11:22:02;;;;;;;16.17;6.43;;;;;;;;;;5091832;28;20103;-82
2023/12/16 11:24:28;;;;;;;20.95;6.55;;;;;;;;;;5071258;28;20122;-81
2023/12/16 11:26:54;;;;;;;18.17;6.30;;;;;;;;;;5073224;28;20035;-81
2023/12/16 11:29:21;;;;;;;16.45;5.00;;;;;;;;;;5073266;28;20028;-82
2023/12/16 11:31:55;;;;;;;15.98;5.75;;;;;;;;;;5088651;28;20402;-81
2023/12/16 11:34:40;;;;;;;17.13;7.45;;;;;;;;;;5090530;28;20051;-81
2023/12/16 11:37:06;;;;;;;10.05;5.68;;;;;;;;;;5092387;28;20531;-81
2023/12/16 11:39:40;;;;;;;16.33;6.68;;;;;;;;;;5066435;28;20109;-81
2023/12/16 11:42:06;;;;;;;16.70;6.60;;;;;;;;;;5089697;28;20081;-81
2023/12/16 11:44:51;;;;;;;10.75;5.32;;;;;;;;;;5087627;28;20104;-78
2023/12/16 11:47:18;;;;;;;12.63;4.70;;;;;;;;;;5088925;28;20505;-81
2023/12/16 11:49:47;;;;;;;9.23;4.80;;;;;;;;;;5086679;28;20036;-81
2023/12/16 11:52:14;;;;;;;21.17;6.22;;;;;;;;;;5088268;28;20015;-80
2023/12/16 11:54:39;;;;;;;12.50;4.65;;;;;;;;;;5084334;28;20035;-80
2023/12/16 11:57:05;;;;;;;10.82;5.05;;;;;;;;;;5079524;28;20429;-82
2023/12/16 11:59:31;;;;;;;15.48;5.68;;;;;;;;;;5090201;28;20052;-83
2023/12/16 12:01:57;;;;;;;13.75;5.50;;;;;;;;;;5070676;28;20020;-81
2023/12/16 12:04:23;;;;;;;15.80;5.50;;;;;;;;;;5088269;28;20031;-82
2023/12/16 12:06:49;;;;;;;13.18;5.28;;;;;;;;;;5062703;28;20429;-82
2023/12/16 12:09:15;;;;;;;10.27;4.80;;;;;;;;;;5082856;28;20160;-80
2023/12/16 12:11:42;;;;;;;15.15;5.97;;;;;;;;;;5066954;28;20032;-82
2023/12/16 12:14:08;;;;;;;13.48;5.13;;;;;;;;;;5067919;28;20599;-81
2023/12/16 12:16:34;;;;;;;11.80;4.70;;;;;;;;;;5069352;28;20028;-82
2023/12/16 12:19:02;;;;;;;12.73;3.85;;;;;;;;;;5088715;28;20044;-81
2023/12/16 12:21:28;;;;;;;11.25;6.18;;;;;;;;;;5071359;28;20481;-82
2023/12/16 12:23:53;;;;;;;16.38;6.47;;;;;;;;;;5074667;28;20107;-82
2023/12/16 12:26:23;;;;;;;12.18;4.45;;;;;;;;;;5070804;28;20486;-81
2023/12/16 12:28:55;;;;;;;14.50;5.40;;;;;;;;;;5083923;28;20024;-80
2023/12/16 12:31:21;;;;;;;12.65;5.05;;;;;;;;;;5083962;28;20059;-82
2023/12/16 12:33:50;;;;;;;6.60;3.10;;;;;;;;;;5084299;28;20040;-81
2023/12/16 12:36:16;;;;;;;8.60;3.63;;;;;;;;;;5085406;28;20028;-81
2023/12/16 12:38:45;;;;;;;8.70;3.63;;;;;;;;;;5080585;28;20029;-81
2023/12/16 12:41:14;;;;;;;9.32;4.28;;;;;;;;;;5087531;28;20038;-82
2023/12/16 12:43:40;;;;;;;11.48;4.55;;;;;;;;;;5072011;28;20142;-81
2023/12/16 12:46:14;;;;;;;9.10;4.47;;;;;;;;;;5086978;28;20032;-81
2023/12/16 12:48:40;;;;;;;8.35;4.15;;;;;;;;;;5085630;28;20031;-81
2023/12/16 12:51:08;;;;;;;6.35;3.35;;;9.10;99.90;;;;;;5085404;28;20024;-81
2023/12/16 12:53:37;;;;;;;10.85;3.13;;;;;;;;;;5082718;28;20559;-81
2023/12/16 12:56:04;;;;;;;11.07;3.83;;;;;;;;;;5064495;28;20069;-81
2023/12/16 12:58:31;;;;;;;6.55;3.05;;;;;;;;;;5086264;28;20024;-80
2023/12/16 13:01:02;;;;;;;7.40;3.00;;;;;;;;;;5066151;28;20083;-82
2023/12/16 13:03:28;;;;;;;12.57;4.05;;;;;;;;;;5069454;28;20055;-81
2023/12/16 13:05:55;;;;;;;10.73;2.63;;;;;;;;;;5084978;28;20508;-81
2023/12/16 13:08:21;;;;;;;8.23;2.75;;;;;;;;;;5081233;28;20051;-80
2023/12/16 13:10:51;;;;;;;8.60;2.97;;;;;;;;;;5065250;28;20020;-81
2023/12/16 13:13:17;;;;;;;13.95;4.63;;;;;;;;;;5082564;28;20032;-79
2023/12/16 13:15:43;;;;;;;12.38;3.28;;;;;;;;;;5058747;28;20020;-80
2023/12/16 13:18:08;;;;;;;9.35;3.40;;;;;;;;;;5056352;28;20028;-79
2023/12/16 13:20:38;;;;;;;7.55;3.15;;;;;;;;;;5054548;28;20035;-80
2023/12/16 13:23:04;;;;;;;10.60;3.80;;;;;;;;;;5082301;28;20034;-81
2023/12/16 13:25:30;;;;;;;7.15;2.80;;;;;;;;;;5082159;28;20028;-82
2023/12/16 13:27:57;;;;;;;13.27;3.30;;;;;;;;;;5088516;28;20473;-80
2023/12/16 13:30:24;;;;;;;8.57;3.17;;;;;;;;;;5062561;28;20024;-80
2023/12/16 13:32:50;;;;;;;15.48;4.03;;;;;;;;;;5093582;28;20058;-80
2023/12/16 13:35:16;;;;;;;13.13;3.15;;;;;;;;;;5082141;28;20497;-79
2023/12/16 13:37:42;;;;;;;7.50;2.55;;;;;;;;;;5075093;28;20446;-80
2023/12/16 13:40:09;;;;;;;12.85;3.67;;;;;;;;;;5083987;28;20021;-80
2023/12/16 13:42:35;;;;;;;22.00;10.57;;;;;;;;;;5087626;28;20470;-81
2023/12/16 13:45:01;;;;;;;20.85;7.55;;;;;;;;;;5063463;28;20036;-81
2023/12/16 13:47:27;;;;;;;16.50;4.45;;;;;;;;;;5086157;28;20028;-82
2023/12/16 13:49:53;;;;;;;9.45;4.40;;;;;;;;;;5075518;28;20036;-80
2023/12/16 13:52:19;;;;;;;9.25;4.40;;;;;;;;;;5082152;28;20028;-80
2023/12/16 13:54:46;;;;;;;13.50;4.50;;;;;;;;;;5087391;28;20505;-83
2023/12/16 13:57:13;;;;;;;11.13;3.08;;;;;;;;;;5084228;28;20024;-82
2023/12/16 13:59:39;;;;;;;9.13;3.03;;;;;;;;;;5064909;28;20479;-79
2023/12/16 14:02:06;;;;;;;8.98;3.20;;;;;;;;;;5088105;28;20110;-80
2023/12/16 14:04:32;;;;;;;9.77;3.25;;;;;;;;;;5068115;28;20020;-81
2023/12/16 14:06:59;;;;;;;14.38;5.15;;;;;;;;;;5062329;28;20127;-79
2023/12/16 14:09:25;;;;;;;12.05;4.65;;;;;;;;;;5079826;28;20524;-80
2023/12/16 14:11:51;;;;;;;9.85;3.13;;;;;;;;;;5092249;28;20023;-81
2023/12/16 14:14:17;;;;;;;11.88;5.90;;;;;;;;;;5100697;28;20084;-79
2023/12/16 14:16:43;;;;;;;10.57;4.28;;;;;;;;;;5078539;28;20035;-80
2023/12/16 14:19:09;;;;;;;7.40;3.33;;;;;;;;;;5084557;28;20422;-81
2023/12/16 14:21:35;;;;;;;7.93;3.08;;;;;;;;;;5054174;28;20073;-82
2023/12/16 14:24:01;;;;;;;11.23;2.85;;;;;;;;;;5071912;28;20535;-80